Time;durP1;ratioP1;P1;durP2;ratioP2;P2;SDS_P1;SDS_P2;PMS_P1;PMS_P2;Temp;Humidity;BMP_temperature;BMP_pressure;BME280_temperature;BME280_humidity;BME280_pressure;Samples;Min_cycle;Max_cycle;Signal;HPM_P1;HPM_P2
2021/11/08 00:01:18;;;;;;;7.13;3.90;;;8.20;99.90;;;;;;5118860;28;20396;-81
2021/11/08 00:03:47;;;;;;;13.73;4.00;;;8.10;99.90;;;;;;5103117;28;20423;-80
2021/11/08 00:06:16;;;;;;;11.40;3.30;;;8.00;99.90;;;;;;5117865;28;20388;-81
2021/11/08 00:08:42;;;;;;;4.03;3.13;;;7.80;99.90;;;;;;5100491;28;20415;-80
2021/11/08 00:11:09;;;;;;;3.57;3.30;;;7.70;99.90;;;;;;5099532;28;20707;-80
2021/11/08 00:13:37;;;;;;;3.40;3.10;;;7.80;99.90;;;;;;5118001;28;20922;-81
2021/11/08 00:16:20;;;;;;;10.40;3.70;;;7.80;99.90;;;;;;5117343;28;20785;-81
2021/11/08 00:19:06;;;;;;;10.30;4.10;;;7.90;99.90;;;;;;5117919;28;20394;-81
2021/11/08 00:21:34;;;;;;;10.63;4.03;;;8.00;99.90;;;;;;5118039;28;20769;-81
2021/11/08 00:24:00;;;;;;;5.10;3.10;;;8.00;99.90;;;;;;5117537;28;20431;-81
2021/11/08 00:26:26;;;;;;;4.40;4.00;;;8.10;99.90;;;;;;5117436;28;20363;-81
2021/11/08 00:28:52;;;;;;;6.47;3.03;;;8.10;99.90;;;;;;5098988;28;20166;-81
2021/11/08 00:31:18;;;;;;;4.13;2.70;;;8.10;99.90;;;;;;5099098;28;20472;-82
2021/11/08 00:33:44;;;;;;;8.83;4.17;;;8.10;99.90;;;;;;5117946;28;20473;-81
2021/11/08 00:36:11;;;;;;;7.00;2.93;;;8.00;99.90;;;;;;5117919;28;20424;-81
2021/11/08 00:38:36;;;;;;;9.07;2.80;;;8.00;99.90;;;;;;5117661;28;20414;-82
2021/11/08 00:41:03;;;;;;;5.83;2.80;;;7.90;99.90;;;;;;5118696;28;20388;-79
2021/11/08 00:43:30;;;;;;;3.30;2.37;;;7.80;99.90;;;;;;5118666;28;20197;-81
2021/11/08 00:45:57;;;;;;;5.73;3.10;;;7.90;99.90;;;;;;5118579;28;20479;-82
2021/11/08 00:48:25;;;;;;;4.20;2.10;;;7.90;99.90;;;;;;5118675;28;20776;-81
2021/11/08 00:50:53;;;;;;;6.20;2.43;;;7.80;99.90;;;;;;5119605;28;20392;-82
2021/11/08 00:53:20;;;;;;;7.20;3.47;;;7.80;99.90;;;;;;5125048;28;20400;-80
2021/11/08 00:55:47;;;;;;;2.33;2.13;;;7.80;99.90;;;;;;5129097;28;20502;-80
2021/11/08 00:58:19;;;;;;;5.23;2.70;;;7.80;99.90;;;;;;5131257;28;20391;-78
2021/11/08 01:00:45;;;;;;;3.00;2.30;;;7.70;99.90;;;;;;5134764;28;20424;-78
2021/11/08 01:03:14;;;;;;;2.67;2.47;;;7.70;99.90;;;;;;5134902;28;20374;-79
2021/11/08 01:05:40;;;;;;;5.73;2.57;;;7.70;99.90;;;;;;5123926;28;20371;-81
2021/11/08 01:08:07;;;;;;;4.83;2.80;;;7.70;99.90;;;;;;5123819;28;20451;-79
2021/11/08 01:10:33;;;;;;;6.37;3.07;;;7.70;99.90;;;;;;5129459;28;20176;-79
2021/11/08 01:13:00;;;;;;;9.40;3.20;;;7.70;99.90;;;;;;5130140;28;20391;-79
2021/11/08 01:15:26;;;;;;;7.40;3.13;;;7.70;99.90;;;;;;5130163;28;20375;-80
2021/11/08 01:17:52;;;;;;;6.77;3.17;;;7.70;99.90;;;;;;5129053;28;20396;-79
2021/11/08 01:20:19;;;;;;;3.10;2.30;;;7.70;99.90;;;;;;5127726;28;20444;-79
2021/11/08 01:22:46;;;;;;;11.30;2.93;;;7.70;99.90;;;;;;5128816;28;20190;-79
2021/11/08 01:25:12;;;;;;;10.17;3.90;;;7.70;99.90;;;;;;5129067;28;20366;-79
2021/11/08 01:27:42;;;;;;;9.70;4.13;;;7.60;99.90;;;;;;5129312;28;20412;-79
2021/11/08 01:30:14;;;;;;;5.03;2.30;;;7.60;99.90;;;;;;5130544;28;20395;-78
2021/11/08 01:32:55;;;;;;;11.30;3.30;;;7.60;99.90;;;;;;5112107;28;20412;-79
2021/11/08 01:35:29;;;;;;;4.17;3.80;;;7.60;99.90;;;;;;5129077;28;20390;-79
2021/11/08 01:38:07;;;;;;;9.73;2.83;;;7.60;99.90;;;;;;5129244;28;20366;-79
2021/11/08 01:40:34;;;;;;;7.63;3.63;;;7.50;99.90;;;;;;5131457;28;20448;-79
2021/11/08 01:43:01;;;;;;;12.00;4.13;;;7.60;99.90;;;;;;5115229;28;20415;-78
2021/11/08 01:45:27;;;;;;;7.40;4.13;;;7.50;99.90;;;;;;5133480;28;20366;-78
2021/11/08 01:47:53;;;;;;;8.47;3.57;;;7.50;99.90;;;;;;5106427;28;20410;-81
2021/11/08 01:50:19;;;;;;;6.50;4.90;;;7.50;99.90;;;;;;5121388;28;20455;-80
2021/11/08 01:52:45;;;;;;;6.53;3.70;;;7.60;99.90;;;;;;5121845;28;20727;-81
2021/11/08 01:55:11;;;;;;;5.73;3.00;;;7.60;99.90;;;;;;5119636;28;20174;-80
2021/11/08 01:57:37;;;;;;;10.20;3.30;;;7.60;99.90;;;;;;5120392;28;20316;-80
2021/11/08 02:00:07;;;;;;;5.60;3.10;;;7.60;99.90;;;;;;5119862;28;20442;-80
2021/11/08 02:02:34;;;;;;;6.03;3.50;;;7.70;99.90;;;;;;5102720;28;20396;-79
2021/11/08 02:05:00;;;;;;;4.40;2.97;;;7.70;99.90;;;;;;5120166;28;20435;-80
2021/11/08 02:07:27;;;;;;;8.27;3.67;;;7.60;99.90;;;;;;5119869;28;20392;-80
2021/11/08 02:09:53;;;;;;;9.57;4.70;;;7.60;99.90;;;;;;5119444;28;20403;-80
2021/11/08 02:12:19;;;;;;;5.30;3.33;;;7.60;99.90;;;;;;5119598;28;20392;-80
2021/11/08 02:14:44;;;;;;;5.47;2.90;;;7.60;99.90;;;;;;5119958;28;20676;-80
2021/11/08 02:17:11;;;;;;;5.60;3.87;;;7.60;99.90;;;;;;5120050;28;20166;-80
2021/11/08 02:19:37;;;;;;;6.30;3.50;;;7.60;99.90;;;;;;5119693;28;20209;-80
2021/11/08 02:22:05;;;;;;;6.73;3.97;;;7.70;99.90;;;;;;5119838;28;20428;-80
2021/11/08 02:24:34;;;;;;;3.30;2.70;;;7.70;99.90;;;;;;5119141;28;20165;-78
2021/11/08 02:27:00;;;;;;;9.93;3.30;;;7.80;99.90;;;;;;5120184;28;20370;-79
2021/11/08 02:29:26;;;;;;;6.87;3.83;;;7.80;99.90;;;;;;5120091;28;20880;-80
2021/11/08 02:31:53;;;;;;;3.73;2.87;;;7.70;99.90;;;;;;5120394;28;20382;-80
2021/11/08 02:34:19;;;;;;;10.00;3.70;;;7.80;99.90;;;;;;5120267;28;20162;-80
2021/11/08 02:36:45;;;;;;;2.93;2.60;;;7.70;99.90;;;;;;5120495;28;20431;-80
2021/11/08 02:39:20;;;;;;;4.43;3.70;;;7.70;99.90;;;;;;5126107;28;20949;-79
2021/11/08 02:41:48;;;;;;;4.23;3.47;;;7.80;99.90;;;;;;5126365;28;20237;-80
2021/11/08 02:44:14;;;;;;;5.27;2.63;;;7.80;99.90;;;;;;5129741;28;20426;-79
2021/11/08 02:46:42;;;;;;;7.17;3.70;;;7.70;99.90;;;;;;5126361;28;20988;-80
2021/11/08 02:49:12;;;;;;;15.60;4.87;;;7.70;99.90;;;;;;5120671;28;20166;-80
2021/11/08 02:51:44;;;;;;;7.70;3.47;;;7.40;99.90;;;;;;5119670;28;20380;-80
2021/11/08 02:54:16;;;;;;;8.57;2.87;;;7.60;99.90;;;;;;5128327;28;20392;-79
2021/11/08 02:56:41;;;;;;;10.33;5.03;;;7.60;99.90;;;;;;5128465;28;20372;-80
2021/11/08 02:59:07;;;;;;;5.87;4.33;;;7.60;99.90;;;;;;5128203;28;20798;-80
2021/11/08 03:01:33;;;;;;;5.80;3.40;;;7.60;99.90;;;;;;5123686;28;20177;-81
2021/11/08 03:04:01;;;;;;;4.60;3.53;;;7.60;99.90;;;;;;5120344;28;20257;-80
2021/11/08 03:06:34;;;;;;;6.20;3.70;;;7.60;99.90;;;;;;5121441;28;20603;-80
2021/11/08 03:09:18;;;;;;;2.90;2.70;;;7.70;99.90;;;;;;5120333;28;20363;-80
2021/11/08 03:11:45;;;;;;;12.87;4.80;;;7.50;99.90;;;;;;5119277;28;20373;-80
2021/11/08 03:14:17;;;;;;;10.27;3.47;;;7.50;99.90;;;;;;5118365;28;20402;-80
2021/11/08 03:16:51;;;;;;;6.80;3.50;;;7.30;99.90;;;;;;5101263;28;20386;-80
2021/11/08 03:19:23;;;;;;;3.47;2.67;;;7.40;99.90;;;;;;5118920;28;20422;-80
2021/11/08 03:21:52;;;;;;;5.73;3.00;;;7.50;99.90;;;;;;5119289;28;20888;-78
2021/11/08 03:24:32;;;;;;;10.33;3.77;;;7.40;99.90;;;;;;5119293;28;20420;-80
2021/11/08 03:27:03;;;;;;;11.23;4.57;;;7.20;99.90;;;;;;5127865;28;20388;-79
2021/11/08 03:29:30;;;;;;;16.63;4.53;;;7.00;99.90;;;;;;5132064;28;20741;-79
2021/11/08 03:31:57;;;;;;;14.57;4.40;;;7.10;99.90;;;;;;5132758;28;20402;-80
2021/11/08 03:34:23;;;;;;;8.33;4.00;;;7.20;99.90;;;;;;5129284;28;20412;-80
2021/11/08 03:36:50;;;;;;;3.90;3.47;;;7.00;99.90;;;;;;5128997;28;20399;-78
2021/11/08 03:39:17;;;;;;;7.23;3.70;;;7.00;99.90;;;;;;5128488;28;20446;-80
2021/11/08 03:41:43;;;;;;;6.27;3.03;;;7.00;99.90;;;;;;5119824;28;20363;-80
2021/11/08 03:44:09;;;;;;;11.60;6.07;;;6.90;99.90;;;;;;5119213;28;20384;-80
2021/11/08 03:46:35;;;;;;;8.30;3.90;;;6.90;99.90;;;;;;5119143;28;20413;-80
2021/11/08 03:49:01;;;;;;;8.10;3.60;;;6.90;99.90;;;;;;5119113;28;20173;-80
2021/11/08 03:51:27;;;;;;;8.23;4.17;;;7.10;99.90;;;;;;5118451;28;20427;-79
2021/11/08 03:53:53;;;;;;;8.63;4.70;;;6.90;99.90;;;;;;5117912;28;20379;-79
2021/11/08 03:56:19;;;;;;;19.13;4.00;;;7.00;99.90;;;;;;5118234;28;20367;-80
2021/11/08 03:58:45;;;;;;;4.40;3.40;;;7.00;99.90;;;;;;5118806;28;20261;-80
2021/11/08 04:01:14;;;;;;;10.13;3.93;;;7.20;99.90;;;;;;5119129;28;20389;-79
2021/11/08 04:03:40;;;;;;;6.23;3.60;;;7.30;99.90;;;;;;5117436;28;20933;-81
2021/11/08 04:06:06;;;;;;;11.13;5.07;;;7.40;99.90;;;;;;5100063;28;20725;-81
2021/11/08 04:08:32;;;;;;;9.80;3.63;;;7.40;99.90;;;;;;5101177;28;20391;-80
2021/11/08 04:10:58;;;;;;;7.20;3.50;;;7.50;99.90;;;;;;5119830;28;20748;-80
2021/11/08 04:13:29;;;;;;;6.80;3.87;;;7.50;99.90;;;;;;5101591;28;20367;-81
2021/11/08 04:15:58;;;;;;;5.27;3.60;;;7.40;99.90;;;;;;5120947;28;20370;-78
2021/11/08 04:18:26;;;;;;;6.83;4.60;;;7.40;99.90;;;;;;5118324;28;20385;-80
2021/11/08 04:20:54;;;;;;;7.13;4.63;;;7.40;99.90;;;;;;5099947;28;20466;-80
2021/11/08 04:23:22;;;;;;;5.40;3.53;;;7.40;99.90;;;;;;5099876;28;20462;-80
2021/11/08 04:25:49;;;;;;;12.07;4.50;;;7.40;99.90;;;;;;5118895;28;20370;-80
2021/11/08 04:28:14;;;;;;;12.47;3.37;;;7.30;99.90;;;;;;5100345;28;20369;-80
2021/11/08 04:30:43;;;;;;;5.47;3.27;;;7.20;99.90;;;;;;5100848;28;20396;-80
2021/11/08 04:36:12;;;;;;;10.17;3.87;;;7.40;99.90;;;;;;5102604;28;20731;-80
2021/11/08 04:44:03;;;;;;;4.23;3.83;;;7.10;99.90;;;;;;5117823;28;20713;-80
2021/11/08 04:46:44;;;;;;;7.07;3.77;;;7.10;99.90;;;;;;5114171;28;20387;-80
2021/11/08 04:52:01;;;;;;;4.43;4.00;;;7.30;99.90;;;;;;5117579;28;20450;-79
2021/11/08 04:54:37;;;;;;;7.10;3.83;;;7.40;99.90;;;;;;5117267;28;20419;-80
2021/11/08 04:57:21;;;;;;;6.90;3.67;;;7.50;99.90;;;;;;5117264;28;20358;-80
2021/11/08 05:31:50;;;;;;;4.03;3.57;;;6.60;99.90;;;;;;5120743;28;20401;-81
2021/11/08 05:34:18;;;;;;;9.03;5.40;;;6.70;99.90;;;;;;5120613;28;20429;-81
2021/11/08 05:36:45;;;;;;;4.23;2.70;;;6.50;99.90;;;;;;5067608;28;20397;-81
2021/11/08 05:39:11;;;;;;;6.07;4.33;;;6.60;99.90;;;;;;5120924;28;20562;-80
2021/11/08 05:41:39;;;;;;;9.20;4.50;;;6.60;99.90;;;;;;5102834;28;20405;-81
2021/11/08 05:44:06;;;;;;;7.23;4.77;;;6.60;99.90;;;;;;5069415;28;20407;-81
2021/11/08 05:46:33;;;;;;;7.50;3.57;;;6.60;99.90;;;;;;5103069;28;20467;-81
2021/11/08 05:48:59;;;;;;;5.90;4.77;;;6.70;99.90;;;;;;5121088;28;20488;-81
2021/11/08 05:51:26;;;;;;;4.80;3.17;;;6.60;99.90;;;;;;5121262;28;20402;-81
2021/11/08 05:53:52;;;;;;;5.97;3.67;;;6.70;99.90;;;;;;5121375;28;20451;-81
2021/11/08 05:56:47;;;;;;;4.63;3.93;;;6.70;99.90;;;;;;5121647;28;20888;-81
2021/11/08 06:50:37;;;;;;;7.47;4.87;;;7.10;99.90;;;;;;4954902;28;20440;-81
2021/11/08 06:53:06;;;;;;;6.03;3.97;;;6.80;99.90;;;;;;4961591;28;20400;-81
2021/11/08 06:55:33;;;;;;;7.00;3.87;;;6.70;99.90;;;;;;4961997;28;20197;-81
2021/11/08 06:58:02;;;;;;;13.50;4.77;;;6.50;99.90;;;;;;4962715;28;20408;-79
2021/11/08 07:00:28;;;;;;;6.40;4.67;;;6.40;99.90;;;;;;4974597;28;20523;-80
2021/11/08 07:02:56;;;;;;;6.60;3.93;;;6.50;99.90;;;;;;4949435;28;20430;-80
2021/11/08 07:05:22;;;;;;;10.83;3.60;;;6.50;99.90;;;;;;5003498;28;20444;-79
2021/11/08 07:07:53;;;;;;;12.30;5.10;;;6.70;99.90;;;;;;5026515;28;20426;-80
2021/11/08 07:10:21;;;;;;;6.13;3.87;;;6.70;99.90;;;;;;5026563;28;20274;-79
2021/11/08 07:12:49;;;;;;;13.03;5.53;;;6.80;99.90;;;;;;5042834;28;20430;-79
2021/11/08 07:15:14;;;;;;;6.43;4.47;;;6.90;99.90;;;;;;5069537;28;20388;-80
2021/11/08 07:17:40;;;;;;;4.03;3.43;;;6.90;99.90;;;;;;5068902;28;20479;-78
2021/11/08 07:20:07;;;;;;;11.93;4.03;;;6.80;99.90;;;;;;5073981;28;20230;-81
2021/11/08 07:22:33;;;;;;;10.30;5.67;;;6.80;99.90;;;;;;5067394;28;20199;-79
2021/11/08 07:25:00;;;;;;;10.90;5.90;;;6.80;99.90;;;;;;5064302;28;20421;-81
2021/11/08 07:27:26;;;;;;;7.43;4.60;;;6.80;99.90;;;;;;5098170;28;20383;-81
2021/11/08 07:29:52;;;;;;;5.73;4.47;;;6.60;99.90;;;;;;5084717;28;20435;-82
2021/11/08 07:32:25;;;;;;;6.80;6.20;;;6.60;99.90;;;;;;5099341;28;20462;-81
2021/11/08 07:34:52;;;;;;;12.33;5.17;;;6.60;99.90;;;;;;5075960;28;20404;-81
2021/11/08 07:37:18;;;;;;;9.43;4.73;;;6.70;99.90;;;;;;5100811;28;20400;-81
2021/11/08 07:39:44;;;;;;;6.13;4.13;;;6.70;99.90;;;;;;5099261;28;20510;-81
2021/11/08 07:42:10;;;;;;;6.83;5.07;;;6.70;99.90;;;;;;5077258;28;20440;-82
2021/11/08 07:44:37;;;;;;;5.73;4.60;;;6.60;99.90;;;;;;5084152;28;20437;-81
2021/11/08 07:47:04;;;;;;;10.70;5.07;;;6.60;99.90;;;;;;5078360;28;20200;-82
2021/11/08 07:49:30;;;;;;;14.97;4.80;;;6.80;99.90;;;;;;5054737;28;20399;-82
2021/11/08 07:51:56;;;;;;;8.47;5.20;;;6.90;99.90;;;;;;5078268;28;20851;-83
2021/11/08 07:54:24;;;;;;;11.03;4.57;;;6.90;99.90;;;;;;5061591;28;20191;-81
2021/11/08 07:56:50;;;;;;;8.30;4.70;;;7.00;99.90;;;;;;5081175;28;20414;-82
2021/11/08 07:59:18;;;;;;;6.60;4.20;;;7.10;99.90;;;;;;5071615;28;20462;-81
2021/11/08 08:01:46;;;;;;;10.23;4.20;;;7.00;99.90;;;;;;5064678;28;20450;-80
2021/11/08 08:04:13;;;;;;;8.83;5.47;;;7.00;99.90;;;;;;5049771;28;20388;-81
2021/11/08 08:06:39;;;;;;;11.23;3.93;;;7.20;99.90;;;;;;5042128;28;20449;-81
2021/11/08 08:09:05;;;;;;;16.30;4.93;;;7.30;99.90;;;;;;5058871;28;20421;-80
2021/11/08 08:11:31;;;;;;;10.30;5.17;;;7.20;99.90;;;;;;5087881;28;20206;-78
2021/11/08 08:13:58;;;;;;;8.57;4.20;;;7.30;99.90;;;;;;5092628;28;20414;-81
2021/11/08 08:16:24;;;;;;;3.67;3.37;;;7.50;99.90;;;;;;5122633;27;20391;-81
2021/11/08 08:18:51;;;;;;;11.53;5.50;;;7.50;99.90;;;;;;5121563;28;20422;-82
2021/11/08 08:21:18;;;;;;;6.87;4.93;;;7.40;99.90;;;;;;5118760;28;20444;-82
2021/11/08 08:23:44;;;;;;;5.40;4.90;;;7.30;99.90;;;;;;5119288;28;20849;-81
2021/11/08 08:26:11;;;;;;;13.37;5.07;;;7.50;99.90;;;;;;5121878;28;20489;-81
2021/11/08 08:28:38;;;;;;;10.27;5.07;;;7.60;99.90;;;;;;5121410;28;20427;-80
2021/11/08 08:31:04;;;;;;;13.73;7.17;;;7.40;99.90;;;;;;5122196;28;20398;-79
2021/11/08 08:33:31;;;;;;;10.40;5.10;;;7.40;99.90;;;;;;5119159;28;20438;-79
2021/11/08 08:35:58;;;;;;;14.53;4.87;;;7.50;99.90;;;;;;5128933;28;20428;-79
2021/11/08 08:38:25;;;;;;;7.33;4.80;;;7.50;99.90;;;;;;5108180;28;20469;-80
2021/11/08 08:40:53;;;;;;;12.30;4.30;;;7.30;99.90;;;;;;5128223;28;20478;-79
2021/11/08 08:43:20;;;;;;;9.20;4.33;;;7.40;99.90;;;;;;5105785;28;20886;-81
2021/11/08 08:45:46;;;;;;;10.03;5.00;;;7.60;99.90;;;;;;5119461;28;20420;-79
2021/11/08 08:48:13;;;;;;;9.33;5.73;;;7.90;99.90;;;;;;5094933;28;20395;-80
2021/11/08 08:50:41;;;;;;;10.83;5.90;;;7.90;99.90;;;;;;5110871;28;20402;-78
2021/11/08 08:53:07;;;;;;;7.20;4.67;;;8.30;99.90;;;;;;5129445;28;20402;-80
2021/11/08 08:55:35;;;;;;;7.13;4.87;;;8.50;99.90;;;;;;5112513;28;20605;-79
2021/11/08 08:58:01;;;;;;;8.50;5.57;;;8.60;99.90;;;;;;5075178;28;20498;-80
2021/11/08 09:00:27;;;;;;;5.87;4.80;;;8.20;99.90;;;;;;5106363;28;20426;-79
2021/11/08 09:02:55;;;;;;;7.83;4.70;;;8.50;99.90;;;;;;5101299;28;20625;-78
2021/11/08 09:05:25;;;;;;;10.13;4.20;;;8.20;99.90;;;;;;5097564;28;20517;-79
2021/11/08 09:07:51;;;;;;;14.57;6.30;;;8.20;99.90;;;;;;5053030;28;20841;-80
2021/11/08 09:10:38;;;;;;;6.77;5.57;;;8.10;99.90;;;;;;5061119;28;20430;-80
2021/11/08 09:13:07;;;;;;;17.77;6.27;;;8.40;99.90;;;;;;5006032;28;20395;-79
2021/11/08 09:15:34;;;;;;;5.97;4.87;;;8.60;99.90;;;;;;5011687;28;20399;-79
2021/11/08 09:18:03;;;;;;;9.53;4.93;;;8.20;99.90;;;;;;5025183;28;20452;-79
2021/11/08 09:20:49;;;;;;;5.03;3.90;;;8.30;99.90;;;;;;5013615;28;20498;-80
2021/11/08 09:23:16;;;;;;;15.67;5.33;;;8.10;99.90;;;;;;4969123;29;20480;-79
2021/11/08 09:25:42;;;;;;;9.13;5.20;;;8.60;99.90;;;;;;4952668;29;20530;-79
2021/11/08 09:28:17;;;;;;;5.60;4.93;;;8.50;99.90;;;;;;4947167;29;20418;-78
2021/11/08 09:30:45;;;;;;;15.40;6.30;;;8.40;99.90;;;;;;4901340;29;20438;-79
2021/11/08 09:33:14;;;;;;;7.70;5.20;;;8.90;99.90;;;;;;4866835;29;20380;-79
2021/11/08 09:35:48;;;;;;;9.10;4.27;;;8.90;99.90;;;;;;4873387;29;20538;-80
2021/11/08 09:38:14;;;;;;;8.60;5.27;;;8.90;99.90;;;;;;4862497;29;20539;-78
2021/11/08 09:40:42;;;;;;;11.87;7.27;;;9.30;99.90;;;;;;4854372;29;20444;-80
2021/11/08 09:43:14;;;;;;;8.30;6.63;;;9.40;99.90;;;;;;4849469;29;20423;-80
2021/11/08 09:45:42;;;;;;;10.37;4.30;;;8.90;99.90;;;;;;4918903;29;20425;-79
2021/11/08 09:48:11;;;;;;;9.53;6.37;;;9.30;99.90;;;;;;4941726;28;20436;-81
2021/11/08 09:50:38;;;;;;;12.20;6.07;;;9.10;99.90;;;;;;4918193;29;20455;-79
2021/11/08 09:53:09;;;;;;;17.03;6.17;;;9.10;99.90;;;;;;4936502;28;20428;-79
2021/11/08 09:55:52;;;;;;;8.43;4.67;;;9.50;99.90;;;;;;4990990;28;20432;-80
2021/11/08 09:58:18;;;;;;;6.73;5.13;;;9.60;99.90;;;;;;4986133;28;20448;-79
2021/11/08 10:00:53;;;;;;;6.73;5.10;;;9.80;99.90;;;;;;5014526;28;20220;-81
2021/11/08 10:03:24;;;;;;;8.23;5.40;;;9.90;99.90;;;;;;5018072;28;20553;-80
2021/11/08 10:05:53;;;;;;;8.30;5.20;;;9.60;99.90;;;;;;5072410;28;20745;-80
2021/11/08 10:08:23;;;;;;;23.67;5.03;;;9.80;99.90;;;;;;5067314;28;20440;-80
2021/11/08 10:10:51;;;;;;;9.60;4.53;;;9.50;99.90;;;;;;5092160;28;20441;-79
2021/11/08 10:13:21;;;;;;;10.30;5.27;;;9.50;99.90;;;;;;5100999;28;20519;-81
2021/11/08 10:15:51;;;;;;;8.80;5.17;;;9.50;99.90;;;;;;5096477;28;20396;-81
2021/11/08 10:18:20;;;;;;;11.13;5.43;;;9.40;99.90;;;;;;5103461;28;20500;-81
2021/11/08 10:20:48;;;;;;;8.87;4.40;;;9.70;99.90;;;;;;5067427;28;20928;-79
2021/11/08 10:23:18;;;;;;;5.93;4.70;;;10.10;99.90;;;;;;5064752;28;20952;-81
2021/11/08 10:25:45;;;;;;;13.03;5.37;;;10.00;99.90;;;;;;5084146;28;20436;-80
2021/11/08 10:28:22;;;;;;;5.00;4.00;;;10.80;99.90;;;;;;5075199;28;20442;-80
2021/11/08 10:30:57;;;;;;;11.77;4.20;;;12.30;99.90;;;;;;5055661;28;20441;-79
2021/11/08 10:33:30;;;;;;;10.70;5.43;;;12.50;99.90;;;;;;5095581;28;20454;-82
2021/11/08 10:36:10;;;;;;;12.53;4.93;;;11.70;99.90;;;;;;5098638;28;20440;-81
2021/11/08 10:38:37;;;;;;;7.90;4.50;;;11.50;99.90;;;;;;5075236;28;20479;-80
2021/11/08 10:41:13;;;;;;;18.00;4.97;;;10.30;99.90;;;;;;5099908;28;20426;-80
2021/11/08 10:43:44;;;;;;;10.67;4.20;;;10.80;99.90;;;;;;5104824;28;20435;-81
2021/11/08 10:46:15;;;;;;;6.87;4.97;;;10.90;99.90;;;;;;5107979;28;20394;-79
2021/11/08 10:48:47;;;;;;;10.30;3.80;;;10.70;99.90;;;;;;5120084;27;20454;-80
2021/11/08 10:51:16;;;;;;;5.60;3.53;;;10.30;99.90;;;;;;5100305;28;20496;-80
2021/11/08 10:53:48;;;;;;;7.03;3.50;;;9.80;99.90;;;;;;5101690;28;20452;-81
2021/11/08 10:56:21;;;;;;;11.30;3.20;;;9.70;99.90;;;;;;5119957;28;20437;-81
2021/11/08 10:58:47;;;;;;;9.23;4.10;;;10.10;99.90;;;;;;5107408;28;20428;-80
2021/11/08 11:01:24;;;;;;;6.73;2.90;;;10.20;99.90;;;;;;5101689;28;20523;-78
2021/11/08 11:03:52;;;;;;;5.80;2.93;;;10.40;99.90;;;;;;5126483;28;20411;-79
2021/11/08 11:06:19;;;;;;;5.47;3.63;;;10.40;99.90;;;;;;5124735;28;20416;-78
2021/11/08 11:08:50;;;;;;;3.87;2.70;;;10.50;99.90;;;;;;5126466;28;20370;-80
2021/11/08 11:11:24;;;;;;;2.83;2.40;;;10.20;99.90;;;;;;5122054;28;20402;-81
2021/11/08 11:13:53;;;;;;;3.53;2.77;;;10.40;99.90;;;;;;5118269;28;20449;-79
2021/11/08 11:16:41;;;;;;;2.90;2.60;;;9.70;99.90;;;;;;5105381;28;20431;-81
2021/11/08 11:19:10;;;;;;;9.30;2.80;;;9.60;99.90;;;;;;5058116;28;20446;-81
2021/11/08 11:21:38;;;;;;;5.50;2.30;;;9.70;99.90;;;;;;5040052;28;20470;-80
2021/11/08 11:24:10;;;;;;;4.20;3.10;;;9.80;99.90;;;;;;5054643;28;20445;-81
2021/11/08 11:26:50;;;;;;;9.00;4.10;;;9.60;99.90;;;;;;5011562;28;20405;-81
2021/11/08 11:29:27;;;;;;;3.93;2.80;;;9.50;99.90;;;;;;5029533;28;20837;-80
2021/11/08 11:31:53;;;;;;;4.40;3.20;;;9.40;99.90;;;;;;5000804;28;20565;-81
2021/11/08 11:34:23;;;;;;;4.80;3.20;;;9.60;99.90;;;;;;4990443;28;20445;-80
2021/11/08 11:36:55;;;;;;;8.43;4.10;;;9.70;99.90;;;;;;4986711;28;20413;-80
2021/11/08 11:39:22;;;;;;;7.30;3.53;;;9.70;99.90;;;;;;5003516;28;20483;-81
2021/11/08 11:41:50;;;;;;;4.57;3.00;;;10.00;99.90;;;;;;4922061;29;20661;-81
2021/11/08 11:44:21;;;;;;;4.20;2.43;;;9.70;99.90;;;;;;4907816;29;20526;-79
2021/11/08 11:46:52;;;;;;;3.77;2.53;;;9.60;99.90;;;;;;4905211;29;20422;-80
2021/11/08 11:49:25;;;;;;;2.67;1.80;;;9.70;99.90;;;;;;4901035;29;20448;-79
2021/11/08 11:51:55;;;;;;;7.50;2.83;;;9.90;99.90;;;;;;4903409;29;20419;-77
2021/11/08 11:54:25;;;;;;;3.30;1.70;;;10.30;99.90;;;;;;4933539;29;20463;-77
2021/11/08 11:56:54;;;;;;;4.57;2.40;;;12.70;99.90;;;;;;4892219;29;20420;-77
2021/11/08 11:59:23;;;;;;;4.73;1.97;;;13.40;99.90;;;;;;4834555;29;21009;-80
2021/11/08 12:01:50;;;;;;;5.30;2.17;;;15.20;99.90;;;;;;4864743;29;20448;-78
2021/11/08 12:04:16;;;;;;;7.67;2.87;;;14.10;99.90;;;;;;4893763;29;20438;-79
2021/11/08 12:06:48;;;;;;;4.03;1.97;;;12.50;99.90;;;;;;4927165;29;20527;-80
2021/11/08 12:09:21;;;;;;;6.83;2.33;;;11.30;99.90;;;;;;4924190;29;20446;-79
2021/11/08 12:11:54;;;;;;;3.20;1.80;;;11.60;99.90;;;;;;4926555;29;20451;-80
2021/11/08 12:14:23;;;;;;;2.37;2.17;;;11.90;99.90;;;;;;4942871;29;20445;-78
2021/11/08 12:17:06;;;;;;;4.00;2.50;;;11.90;99.90;;;;;;4918492;28;20478;-79
2021/11/08 12:19:36;;;;;;;3.63;1.93;;;11.70;99.90;;;;;;4945595;29;20597;-80
2021/11/08 12:22:26;;;;;;;3.10;1.60;;;11.60;99.90;;;;;;4943618;29;20455;-79
2021/11/08 12:24:58;;;;;;;3.00;1.93;;;10.90;99.90;;;;;;4901622;29;20442;-81
2021/11/08 12:27:44;;;;;;;3.20;2.90;;;11.00;99.90;;;;;;4902674;29;20465;-81
2021/11/08 12:30:15;;;;;;;1.80;1.47;;;11.00;99.90;;;;;;4913957;29;20444;-80
2021/11/08 12:32:46;;;;;;;2.10;1.60;;;10.90;99.90;;;;;;4947118;28;20420;-81
2021/11/08 12:35:16;;;;;;;4.13;3.33;;;10.60;99.90;;;;;;4916030;29;20910;-80
2021/11/08 12:37:43;;;;;;;5.77;2.27;;;10.80;99.90;;;;;;4909059;29;20456;-80
2021/11/08 12:40:15;;;;;;;9.63;2.53;;;10.80;99.90;;;;;;4908256;29;20548;-80
2021/11/08 12:42:46;;;;;;;4.90;2.40;;;10.90;99.90;;;;;;4903075;29;20468;-80
2021/11/08 12:45:39;;;;;;;6.20;2.40;;;10.80;99.90;;;;;;4871551;29;20469;-80
2021/11/08 12:48:13;;;;;;;3.20;2.40;;;10.80;99.90;;;;;;4846953;29;20442;-80
2021/11/08 12:50:47;;;;;;;4.43;2.67;;;10.80;99.90;;;;;;4834195;29;20492;-79
2021/11/08 12:53:29;;;;;;;2.17;1.90;;;10.90;99.90;;;;;;4863718;29;20507;-80
2021/11/08 12:56:08;;;;;;;12.50;3.00;;;10.90;99.90;;;;;;4919745;29;20477;-80
2021/11/08 12:58:38;;;;;;;10.03;3.17;;;10.90;99.90;;;;;;4927929;29;20462;-80
2021/11/08 13:01:08;;;;;;;7.23;3.00;;;10.80;99.90;;;;;;4927253;29;20475;-80
2021/11/08 13:04:09;;;;;;;3.70;2.20;;;11.00;99.90;;;;;;4920188;29;20435;-81
2021/11/08 13:06:40;;;;;;;7.73;2.40;;;10.80;99.90;;;;;;4916973;29;20548;-80
2021/11/08 13:09:16;;;;;;;10.80;2.87;;;10.90;99.90;;;;;;4927007;29;20429;-80
2021/11/08 13:11:52;;;;;;;3.60;3.07;;;10.70;99.90;;;;;;4914274;29;20456;-79
2021/11/08 13:14:35;;;;;;;2.60;2.40;;;10.80;99.90;;;;;;4922079;29;20547;-79
2021/11/08 13:17:11;;;;;;;3.40;1.90;;;10.80;99.90;;;;;;4909525;29;20430;-79
2021/11/08 13:19:49;;;;;;;4.73;2.13;;;10.80;99.90;;;;;;4908037;29;20438;-80
2021/11/08 13:22:23;;;;;;;2.77;2.20;;;10.60;99.90;;;;;;4915951;29;20876;-79
2021/11/08 13:25:11;;;;;;;7.17;3.50;;;10.80;99.90;;;;;;4916158;29;20475;-80
2021/11/08 13:27:46;;;;;;;5.50;3.13;;;10.80;99.90;;;;;;4905509;29;20443;-81
2021/11/08 13:30:14;;;;;;;6.27;3.40;;;10.90;99.90;;;;;;4901342;29;20824;-78
2021/11/08 13:33:03;;;;;;;15.47;3.50;;;10.90;99.90;;;;;;4955344;29;20418;-80
2021/11/08 13:35:50;;;;;;;6.07;3.40;;;10.80;99.90;;;;;;4885250;29;20446;-79
2021/11/08 13:38:25;;;;;;;5.37;2.43;;;10.90;99.90;;;;;;4866391;29;20463;-80
2021/11/08 13:41:15;;;;;;;10.33;2.57;;;10.90;99.90;;;;;;4889206;29;21022;-79
2021/11/08 13:43:59;;;;;;;3.53;2.10;;;10.90;99.90;;;;;;4892706;29;20542;-80
2021/11/08 13:46:37;;;;;;;5.97;3.03;;;10.80;99.90;;;;;;4892833;29;20442;-79
2021/11/08 13:49:09;;;;;;;2.80;2.20;;;10.80;99.90;;;;;;4910275;29;20451;-80
2021/11/08 13:51:46;;;;;;;2.63;2.43;;;10.80;99.90;;;;;;4910176;29;20448;-79
2021/11/08 13:54:28;;;;;;;4.43;3.60;;;10.70;99.90;;;;;;4914874;29;20424;-79
2021/11/08 13:57:01;;;;;;;6.80;3.20;;;10.40;99.90;;;;;;4908779;29;20463;-81
2021/11/08 13:59:31;;;;;;;8.20;3.23;;;10.40;99.90;;;;;;4918178;29;20460;-80
2021/11/08 14:02:06;;;;;;;4.90;2.57;;;10.50;99.90;;;;;;4922969;29;20450;-81
2021/11/08 14:04:41;;;;;;;5.50;4.30;;;10.40;99.90;;;;;;4936878;29;20549;-80
2021/11/08 14:07:09;;;;;;;4.10;3.00;;;10.50;99.90;;;;;;4963461;28;20432;-80
2021/11/08 14:09:37;;;;;;;5.50;2.70;;;10.50;99.90;;;;;;5006634;28;20437;-81
2021/11/08 14:12:05;;;;;;;7.20;1.90;;;10.10;99.90;;;;;;5018644;28;20437;-80
2021/11/08 14:14:35;;;;;;;3.87;2.93;;;10.40;99.90;;;;;;5010150;28;20436;-81
2021/11/08 14:17:13;;;;;;;11.37;2.47;;;10.50;99.90;;;;;;4981543;28;20448;-79
2021/11/08 14:19:40;;;;;;;3.43;2.07;;;10.60;99.90;;;;;;4994842;28;20466;-81
2021/11/08 14:22:06;;;;;;;3.03;2.00;;;10.70;99.90;;;;;;5001709;28;20448;-82
2021/11/08 14:24:39;;;;;;;9.23;2.50;;;10.80;99.90;;;;;;5086984;28;20425;-82
2021/11/08 14:27:10;;;;;;;3.47;2.63;;;10.80;99.90;;;;;;5098327;28;20224;-82
2021/11/08 14:29:37;;;;;;;10.63;3.10;;;10.80;99.90;;;;;;5089246;28;20445;-80
2021/11/08 14:32:08;;;;;;;1.90;1.80;;;10.70;99.90;;;;;;5089735;28;20855;-81
2021/11/08 14:34:39;;;;;;;3.93;2.87;;;10.80;99.90;;;;;;5074448;28;20417;-82
2021/11/08 14:37:11;;;;;;;4.20;2.07;;;10.70;99.90;;;;;;5078149;28;20430;-81
2021/11/08 14:39:47;;;;;;;4.90;2.30;;;10.60;99.90;;;;;;5107239;28;20513;-81
2021/11/08 14:42:18;;;;;;;4.83;2.80;;;10.70;99.90;;;;;;5121544;28;20428;-80